createdAt,value
2023-04-10T00:01:21.758Z,6.36
2023-04-10T00:03:52.489Z,6.36
2023-04-10T00:06:21.057Z,6.38
2023-04-10T00:08:48.937Z,6.27
2023-04-10T00:11:21.826Z,6.13
2023-04-10T00:13:49.838Z,6.01
2023-04-10T00:16:20.523Z,5.96
2023-04-10T00:18:48.528Z,5.91
2023-04-10T00:21:19.251Z,5.82
2023-04-10T00:23:46.959Z,5.76
2023-04-10T00:26:32.298Z,5.68
2023-04-10T00:29:02.415Z,5.60
2023-04-10T00:31:30.137Z,5.59
2023-04-10T00:33:57.836Z,5.55
2023-04-10T00:36:26.366Z,5.50
2023-04-10T00:38:54.052Z,5.47
2023-04-10T00:41:23.290Z,5.43
2023-04-10T00:43:55.382Z,5.42
2023-04-10T00:46:23.414Z,5.47
2023-04-10T00:48:52.110Z,5.54
2023-04-10T00:51:20.637Z,5.52
2023-04-10T00:53:50.620Z,5.52
2023-04-10T00:56:23.561Z,5.61
2023-04-10T00:58:52.071Z,5.68
2023-04-10T01:01:22.633Z,5.71
2023-04-10T01:03:50.905Z,5.70
2023-04-10T01:06:27.021Z,5.71
2023-04-10T01:09:01.994Z,5.69
2023-04-10T01:11:38.824Z,5.69
2023-04-10T01:14:12.253Z,5.81
2023-04-10T01:16:43.833Z,5.90
2023-04-10T01:19:24.687Z,5.93
2023-04-10T01:21:54.799Z,5.93
2023-04-10T01:24:30.521Z,5.88
2023-04-10T01:27:08.939Z,5.75
2023-04-10T01:29:43.566Z,5.55
2023-04-10T01:32:14.033Z,5.39
2023-04-10T01:34:43.849Z,5.24
2023-04-10T01:37:13.684Z,5.13
2023-04-10T01:39:42.320Z,5.03
2023-04-10T01:42:11.502Z,4.93
2023-04-10T01:44:44.034Z,4.85
2023-04-10T01:47:14.038Z,4.76
2023-04-10T01:49:44.038Z,4.64
2023-04-10T01:52:12.118Z,4.58
2023-04-10T01:54:41.495Z,4.57
2023-04-10T01:57:11.605Z,4.62
2023-04-10T01:59:50.815Z,4.67
2023-04-10T02:02:23.448Z,4.71
2023-04-10T02:04:51.526Z,4.66
2023-04-10T02:07:25.548Z,4.65
2023-04-10T02:09:58.163Z,4.65
2023-04-10T02:12:29.743Z,4.60
2023-04-10T02:14:59.400Z,4.52
2023-04-10T02:17:29.567Z,4.44
2023-04-10T02:20:04.149Z,4.40
2023-04-10T02:22:36.937Z,4.37
2023-04-10T02:25:05.795Z,4.36
2023-04-10T02:27:34.349Z,4.37
2023-04-10T02:30:04.036Z,4.47
2023-04-10T02:32:33.529Z,4.52
2023-04-10T02:35:04.816Z,4.47
2023-04-10T02:37:38.728Z,4.52
2023-04-10T02:40:09.243Z,4.60
2023-04-10T02:42:49.626Z,4.56
2023-04-10T02:45:17.473Z,4.59
2023-04-10T02:47:46.941Z,4.63
2023-04-10T02:50:16.961Z,4.60
2023-04-10T02:52:45.384Z,4.61
2023-04-10T02:55:14.717Z,4.60
2023-04-10T02:57:42.592Z,4.60
2023-04-10T03:00:11.753Z,4.61
2023-04-10T03:03:15.343Z,4.63
2023-04-10T03:05:49.796Z,4.59
2023-04-10T03:08:20.823Z,4.45
2023-04-10T03:10:50.487Z,4.36
2023-04-10T03:13:18.196Z,4.40
2023-04-10T03:15:46.583Z,4.49
2023-04-10T03:18:14.337Z,4.55
2023-04-10T03:20:44.969Z,4.52
2023-04-10T03:23:13.193Z,4.46
2023-04-10T03:25:42.804Z,4.47
2023-04-10T03:28:12.873Z,4.42
2023-04-10T03:30:41.594Z,4.37
2023-04-10T03:33:09.974Z,4.38
2023-04-10T03:35:38.317Z,4.43
2023-04-10T03:38:10.210Z,4.44
2023-04-10T03:40:42.298Z,4.42
2023-04-10T03:43:11.239Z,4.26
2023-04-10T03:45:48.694Z,4.10
2023-04-10T03:48:20.395Z,3.96
2023-04-10T03:50:54.312Z,3.86
2023-04-10T03:53:22.006Z,3.82
2023-04-10T03:55:51.950Z,3.82
2023-04-10T03:58:19.967Z,3.82
2023-04-10T04:00:48.354Z,3.83
2023-04-10T04:03:43.397Z,3.85
2023-04-10T04:06:40.982Z,3.89
2023-04-10T04:09:43.694Z,3.90
2023-04-10T04:12:34.687Z,3.91
2023-04-10T04:15:25.180Z,3.99
2023-04-10T04:18:18.434Z,4.07
2023-04-10T04:20:54.532Z,4.16
2023-04-10T04:23:42.816Z,4.28
2023-04-10T04:26:30.522Z,4.27
2023-04-10T04:29:14.987Z,4.26
2023-04-10T04:31:49.694Z,4.37
2023-04-10T04:34:36.565Z,4.59
2023-04-10T04:37:14.177Z,4.74
2023-04-10T04:40:03.138Z,4.79
2023-04-10T04:42:59.473Z,4.80
2023-04-10T04:45:48.699Z,4.94
2023-04-10T04:48:38.547Z,5.04
2023-04-10T04:51:21.724Z,5.01
2023-04-10T04:53:55.592Z,5.01
2023-04-10T04:56:31.132Z,5.01
2023-04-10T04:59:23.863Z,5.02
2023-04-10T05:02:16.254Z,5.04
2023-04-10T05:04:57.898Z,5.06
2023-04-10T05:07:45.413Z,5.14
2023-04-10T05:10:38.904Z,5.25
2023-04-10T05:13:21.702Z,5.37
2023-04-10T05:16:09.916Z,5.53
2023-04-10T05:19:00.971Z,5.65
2023-04-10T05:21:48.911Z,5.82
2023-04-10T05:24:27.608Z,6.02
2023-04-10T05:27:13.501Z,6.21
2023-04-10T05:30:00.373Z,6.45
2023-04-10T05:32:57.830Z,6.66
2023-04-10T05:35:48.073Z,6.85
2023-04-10T05:38:27.618Z,7.05
2023-04-10T05:41:22.123Z,7.36
2023-04-10T05:44:06.102Z,7.94
2023-04-10T05:46:56.207Z,8.62
2023-04-10T05:49:24.059Z,9.09
2023-04-10T05:52:12.392Z,9.12
2023-04-10T05:54:43.382Z,9.01
2023-04-10T05:57:30.198Z,8.94
2023-04-10T06:00:20.478Z,8.81
2023-04-10T06:03:09.538Z,8.66
2023-04-10T06:05:50.533Z,8.55
2023-04-10T06:08:19.049Z,8.51
2023-04-10T06:10:50.622Z,8.52
2023-04-10T06:13:21.705Z,8.50
2023-04-10T06:15:55.036Z,8.50
2023-04-10T06:18:25.928Z,8.58
2023-04-10T06:20:53.590Z,8.90
2023-04-10T06:23:21.506Z,9.60
2023-04-10T06:25:50.633Z,10.18
2023-04-10T06:28:19.464Z,10.68
2023-04-10T06:30:51.448Z,11.27
2023-04-10T06:33:19.712Z,11.84
2023-04-10T06:35:48.309Z,12.52
2023-04-10T06:38:19.161Z,13.27
2023-04-10T06:40:47.916Z,13.93
2023-04-10T06:43:18.537Z,14.43
2023-04-10T06:45:51.852Z,14.74
2023-04-10T06:48:20.375Z,15.10
2023-04-10T06:50:48.510Z,15.38
2023-04-10T06:53:18.802Z,15.69
2023-04-10T06:55:48.658Z,16.14
2023-04-10T06:58:17.840Z,16.74
2023-04-10T07:00:49.420Z,17.35
2023-04-10T07:03:19.791Z,17.91
2023-04-10T07:05:50.540Z,18.39
2023-04-10T07:08:19.942Z,18.55
2023-04-10T07:10:47.874Z,18.43
2023-04-10T07:13:15.777Z,18.49
2023-04-10T07:15:43.956Z,18.56
2023-04-10T07:18:11.735Z,18.50
2023-04-10T07:20:39.524Z,18.31
2023-04-10T07:23:07.541Z,17.95
2023-04-10T07:25:35.339Z,17.50
2023-04-10T07:28:04.601Z,17.08
2023-04-10T07:30:32.624Z,16.62
2023-04-10T07:33:00.997Z,16.31
2023-04-10T07:35:29.778Z,16.17
2023-04-10T07:37:58.826Z,16.27
2023-04-10T07:40:26.848Z,16.34
2023-04-10T07:42:56.131Z,16.36
2023-04-10T07:45:24.295Z,16.35
2023-04-10T07:47:52.223Z,16.48
2023-04-10T07:50:20.095Z,16.72
2023-04-10T07:52:49.088Z,16.94
2023-04-10T07:55:17.137Z,17.12
2023-04-10T07:57:44.937Z,17.42
2023-04-10T08:00:16.257Z,17.55
2023-04-10T08:02:44.453Z,17.71
2023-04-10T08:05:15.963Z,17.96
2023-04-10T08:07:43.835Z,18.19
2023-04-10T08:10:16.837Z,18.23
2023-04-10T08:12:44.692Z,18.27
2023-04-10T08:15:12.734Z,18.34
2023-04-10T08:17:40.822Z,18.33
2023-04-10T08:20:12.506Z,18.45
2023-04-10T08:22:40.396Z,18.49
2023-04-10T08:25:12.644Z,18.56
2023-04-10T08:27:40.412Z,18.87
2023-04-10T08:30:12.779Z,19.04
2023-04-10T08:32:42.411Z,19.04
2023-04-10T08:35:18.691Z,18.95
2023-04-10T08:37:53.560Z,18.98
2023-04-10T08:40:30.653Z,19.08
2023-04-10T08:42:58.446Z,19.24
2023-04-10T08:45:26.207Z,19.36
2023-04-10T08:47:58.236Z,19.51
2023-04-10T08:50:26.508Z,19.56
2023-04-10T08:53:00.017Z,19.65
2023-04-10T08:55:28.003Z,19.78
2023-04-10T08:58:01.503Z,19.80
2023-04-10T09:00:32.016Z,19.70
2023-04-10T09:03:00.231Z,19.57
2023-04-10T09:05:29.487Z,19.35
2023-04-10T09:07:57.472Z,19.33
2023-04-10T09:10:25.658Z,19.32
2023-04-10T09:12:53.447Z,19.24
2023-04-10T09:15:22.126Z,19.22
2023-04-10T09:17:57.723Z,19.20
2023-04-10T09:20:27.290Z,19.23
2023-04-10T09:22:55.371Z,19.20
2023-04-10T09:25:29.965Z,19.25
2023-04-10T09:28:01.153Z,19.36
2023-04-10T09:30:36.625Z,19.39
2023-04-10T09:33:20.973Z,19.28
2023-04-10T09:35:50.043Z,19.24
2023-04-10T09:38:19.037Z,19.27
2023-04-10T09:40:48.260Z,19.23
2023-04-10T09:43:25.167Z,19.07
2023-04-10T09:45:54.084Z,18.98
2023-04-10T09:48:22.575Z,18.87
2023-04-10T09:50:50.836Z,19.01
2023-04-10T09:53:21.418Z,19.30
2023-04-10T09:55:51.038Z,19.35
2023-04-10T09:58:21.323Z,19.41
2023-04-10T10:00:49.265Z,19.45
2023-04-10T10:03:20.542Z,19.58
2023-04-10T10:05:50.839Z,19.68
2023-04-10T10:08:19.110Z,19.80
2023-04-10T10:10:50.609Z,19.85
2023-04-10T10:13:24.125Z,19.77
2023-04-10T10:15:57.805Z,19.60
2023-04-10T10:18:33.737Z,19.58
2023-04-10T10:21:02.422Z,19.48
2023-04-10T10:23:34.260Z,19.20
2023-04-10T10:26:05.385Z,18.92
2023-04-10T10:28:34.022Z,18.93
2023-04-10T10:31:02.700Z,18.99
2023-04-10T10:33:31.339Z,19.01
2023-04-10T10:36:00.154Z,18.88
2023-04-10T10:38:28.126Z,18.73
2023-04-10T10:41:01.570Z,18.81
2023-04-10T10:43:36.179Z,19.02
2023-04-10T10:46:09.636Z,19.17
2023-04-10T10:48:40.941Z,19.26
2023-04-10T10:51:08.802Z,19.35
2023-04-10T10:53:39.019Z,19.41
2023-04-10T10:56:26.243Z,19.54
2023-04-10T10:58:57.212Z,19.75
2023-04-10T11:01:25.656Z,19.99
2023-04-10T11:03:55.861Z,20.16
2023-04-10T11:06:48.680Z,20.06
2023-04-10T11:09:31.274Z,19.86
2023-04-10T11:12:01.907Z,19.72
2023-04-10T11:14:31.027Z,19.45
2023-04-10T11:16:58.769Z,19.10
2023-04-10T11:19:29.289Z,18.84
2023-04-10T11:22:07.571Z,18.75
2023-04-10T11:24:53.314Z,18.97
2023-04-10T11:27:41.045Z,19.14
2023-04-10T11:30:22.887Z,19.29
2023-04-10T11:32:54.270Z,19.40
2023-04-10T11:35:28.082Z,19.29
2023-04-10T11:38:12.791Z,19.04
2023-04-10T11:40:57.538Z,18.77
2023-04-10T11:43:26.058Z,18.52
2023-04-10T11:46:03.150Z,18.29
2023-04-10T11:48:31.689Z,18.09
2023-04-10T11:51:07.004Z,17.87
2023-04-10T11:53:35.094Z,17.76
2023-04-10T11:56:03.046Z,17.92
2023-04-10T11:58:32.419Z,18.16
2023-04-10T12:01:06.690Z,18.34
2023-04-10T12:03:35.862Z,18.52
2023-04-10T12:06:11.207Z,18.69
2023-04-10T12:08:53.695Z,18.77
2023-04-10T12:11:26.024Z,18.65
2023-04-10T12:13:54.193Z,18.57
2023-04-10T12:16:26.188Z,18.59
2023-04-10T12:18:54.702Z,18.64
2023-04-10T12:21:22.751Z,18.60
2023-04-10T12:23:51.641Z,18.34
2023-04-10T12:26:31.264Z,18.07
2023-04-10T12:29:01.637Z,17.82
2023-04-10T12:31:33.525Z,17.69
2023-04-10T12:34:04.707Z,17.67
2023-04-10T12:36:35.455Z,17.73
2023-04-10T12:39:21.464Z,17.80
2023-04-10T12:41:49.209Z,17.89
2023-04-10T12:44:20.400Z,18.02
2023-04-10T12:47:01.018Z,18.10
2023-04-10T12:49:32.412Z,18.12
2023-04-10T12:52:07.949Z,18.09
2023-04-10T12:54:42.982Z,18.04
2023-04-10T12:57:25.863Z,17.96
2023-04-10T12:59:55.160Z,17.86
2023-04-10T13:02:26.786Z,17.84
2023-04-10T13:04:58.257Z,17.90
2023-04-10T13:07:26.999Z,17.92
2023-04-10T13:09:55.526Z,17.99
2023-04-10T13:12:28.513Z,18.01
2023-04-10T13:15:02.693Z,18.02
2023-04-10T13:17:31.427Z,18.04
2023-04-10T13:19:59.425Z,18.11
2023-04-10T13:22:27.327Z,18.12
2023-04-10T13:24:55.594Z,18.04
2023-04-10T13:27:23.328Z,17.88
2023-04-10T13:29:53.064Z,17.82
2023-04-10T13:32:21.032Z,17.77
2023-04-10T13:34:48.750Z,17.76
2023-04-10T13:37:16.573Z,17.81
2023-04-10T13:39:45.457Z,17.82
2023-04-10T13:42:13.628Z,17.79
2023-04-10T13:44:42.061Z,17.77
2023-04-10T13:47:12.241Z,17.72
2023-04-10T13:49:40.281Z,17.66
2023-04-10T13:52:12.636Z,17.69
2023-04-10T13:54:40.962Z,17.80
2023-04-10T13:57:09.041Z,17.80
2023-04-10T13:59:39.301Z,17.74
2023-04-10T14:02:09.081Z,17.67
2023-04-10T14:04:38.289Z,17.62
2023-04-10T14:07:06.339Z,17.57
2023-04-10T14:09:34.033Z,17.48
2023-04-10T14:12:02.849Z,17.35
2023-04-10T14:14:33.232Z,17.14
2023-04-10T14:17:04.050Z,16.99
2023-04-10T14:19:32.215Z,16.85
2023-04-10T14:22:02.393Z,16.72
2023-04-10T14:24:32.730Z,16.58
2023-04-10T14:27:02.128Z,16.48
2023-04-10T14:32:01.876Z,16.30
2023-04-10T14:34:33.353Z,16.23
2023-04-10T14:37:02.498Z,16.21
2023-04-10T14:39:32.398Z,16.23
2023-04-10T14:42:03.825Z,16.22
2023-04-10T14:44:32.029Z,16.20
2023-04-10T14:47:04.412Z,16.14
2023-04-10T14:49:32.378Z,16.11
2023-04-10T14:52:00.162Z,16.05
2023-04-10T14:54:27.929Z,15.99
2023-04-10T14:56:59.470Z,15.93
2023-04-10T14:59:31.204Z,15.90
2023-04-10T15:02:12.541Z,15.88
2023-04-10T15:04:40.900Z,15.85
2023-04-10T15:07:09.265Z,15.80
2023-04-10T15:09:44.373Z,15.78
2023-04-10T15:12:14.692Z,15.74
2023-04-10T15:14:45.760Z,15.67
2023-04-10T15:17:14.956Z,15.58
2023-04-10T15:19:42.858Z,15.51
2023-04-10T15:22:11.084Z,15.45
2023-04-10T15:24:49.971Z,15.36
2023-04-10T15:27:23.038Z,15.26
2023-04-10T15:29:51.432Z,15.19
2023-04-10T15:32:34.029Z,15.12
2023-04-10T15:35:20.487Z,15.04
2023-04-10T15:37:49.090Z,14.95
2023-04-10T15:40:19.651Z,14.86
2023-04-10T15:42:48.919Z,14.80
2023-04-10T15:45:22.095Z,14.74
2023-04-10T15:47:50.908Z,14.67
2023-04-10T15:50:18.882Z,14.60
2023-04-10T15:52:52.349Z,14.53
2023-04-10T15:55:20.662Z,14.47
2023-04-10T15:57:48.544Z,14.41
2023-04-10T16:00:19.449Z,14.34
2023-04-10T16:02:52.703Z,14.28
2023-04-10T16:05:20.687Z,14.24
2023-04-10T16:07:48.469Z,14.18
2023-04-10T16:10:16.338Z,14.10
2023-04-10T16:12:45.106Z,14.02
2023-04-10T16:15:13.498Z,13.92
2023-04-10T16:17:41.422Z,13.84
2023-04-10T16:20:12.049Z,13.76
2023-04-10T16:22:39.786Z,13.71
2023-04-10T16:25:09.004Z,13.65
2023-04-10T16:27:39.440Z,13.55
2023-04-10T16:30:09.007Z,13.48
2023-04-10T16:32:39.795Z,13.42
2023-04-10T16:35:08.676Z,13.34
2023-04-10T16:37:36.400Z,13.26
2023-04-10T16:40:07.846Z,13.14
2023-04-10T16:42:42.590Z,13.01
2023-04-10T16:45:12.720Z,12.91
2023-04-10T16:47:44.421Z,12.83
2023-04-10T16:50:12.795Z,12.77
2023-04-10T16:52:40.885Z,12.71
2023-04-10T16:55:09.188Z,12.67
2023-04-10T16:57:40.010Z,12.65
2023-04-10T17:00:11.067Z,12.60
2023-04-10T17:02:43.617Z,12.53
2023-04-10T17:05:14.064Z,12.44
2023-04-10T17:07:45.081Z,12.34
2023-04-10T17:10:18.614Z,12.24
2023-04-10T17:12:46.820Z,12.15
2023-04-10T17:15:16.602Z,12.05
2023-04-10T17:17:46.804Z,11.94
2023-04-10T17:20:18.128Z,11.82
2023-04-10T17:22:46.332Z,11.72
2023-04-10T17:25:16.856Z,11.63
2023-04-10T17:28:09.843Z,11.50
2023-04-10T17:30:40.055Z,11.37
2023-04-10T17:33:07.898Z,11.25
2023-04-10T17:35:35.622Z,11.15
2023-04-10T17:38:03.938Z,11.04
2023-04-10T17:40:40.336Z,10.95
2023-04-10T17:43:11.042Z,10.85
2023-04-10T17:45:40.413Z,10.76
2023-04-10T17:48:08.570Z,10.69
2023-04-10T17:50:41.511Z,10.61
2023-04-10T17:53:11.721Z,10.53
2023-04-10T17:55:40.122Z,10.43
2023-04-10T17:58:07.951Z,10.36
2023-04-10T18:00:36.360Z,10.28
2023-04-10T18:03:08.712Z,10.22
2023-04-10T18:05:52.005Z,10.13
2023-04-10T18:08:21.546Z,10.04
2023-04-10T18:10:50.061Z,9.94
2023-04-10T18:13:21.881Z,9.88
2023-04-10T18:15:50.360Z,9.82
2023-04-10T18:18:18.375Z,9.74
2023-04-10T18:20:48.625Z,9.68
2023-04-10T18:23:17.157Z,9.61
2023-04-10T18:25:53.217Z,9.51
2023-04-10T18:28:21.401Z,9.42
2023-04-10T18:30:54.641Z,9.30
2023-04-10T18:33:27.754Z,9.20
2023-04-10T18:35:58.324Z,9.14
2023-04-10T18:38:26.998Z,9.10
2023-04-10T18:40:56.869Z,9.08
2023-04-10T18:43:30.497Z,9.06
2023-04-10T18:45:59.784Z,9.03
2023-04-10T18:48:27.773Z,8.99
2023-04-10T18:50:56.160Z,8.93
2023-04-10T18:53:23.995Z,8.88
2023-04-10T18:55:52.822Z,8.85
2023-04-10T18:58:21.704Z,8.82
2023-04-10T19:00:52.341Z,8.84
2023-04-10T19:03:20.292Z,8.87
2023-04-10T19:05:48.190Z,8.86
2023-04-10T19:08:20.672Z,8.82
2023-04-10T19:10:48.921Z,8.75
2023-04-10T19:13:23.145Z,8.72
2023-04-10T19:15:52.189Z,8.67
2023-04-10T19:18:20.023Z,8.63
2023-04-10T19:20:51.027Z,8.56
2023-04-10T19:23:21.252Z,8.58
2023-04-10T19:25:52.856Z,8.58
2023-04-10T19:28:22.237Z,8.51
2023-04-10T19:30:53.077Z,8.44
2023-04-10T19:33:22.532Z,8.33
2023-04-10T19:35:53.686Z,8.22
2023-04-10T19:38:21.490Z,8.12
2023-04-10T19:40:49.980Z,8.02
2023-04-10T19:43:18.298Z,7.94
2023-04-10T19:45:50.354Z,7.91
2023-04-10T19:48:19.158Z,7.91
2023-04-10T19:50:47.415Z,7.90
2023-04-10T19:53:15.160Z,7.83
2023-04-10T19:55:44.784Z,7.79
2023-04-10T19:58:29.886Z,7.79
2023-04-10T20:01:05.786Z,7.80
2023-04-10T20:03:33.597Z,7.77
2023-04-10T20:06:02.336Z,7.77
2023-04-10T20:08:34.198Z,7.80
2023-04-10T20:11:05.360Z,7.83
2023-04-10T20:13:38.172Z,7.87
2023-04-10T20:16:11.615Z,7.84
2023-04-10T20:18:41.038Z,7.75
2023-04-10T20:21:08.833Z,7.68
2023-04-10T20:23:38.144Z,7.59
2023-04-10T20:26:08.664Z,7.51
2023-04-10T20:28:36.630Z,7.55
2023-04-10T20:31:08.257Z,7.66
2023-04-10T20:33:36.219Z,7.65
2023-04-10T20:36:07.211Z,7.55
2023-04-10T20:38:36.146Z,7.46
2023-04-10T20:43:57.754Z,7.62
2023-04-10T20:46:30.963Z,7.55
2023-04-10T20:49:10.484Z,7.50
2023-04-10T20:51:53.227Z,7.41
2023-04-10T20:54:27.957Z,7.34
2023-04-10T20:57:08.862Z,7.32
2023-04-10T20:59:42.486Z,7.33
2023-04-10T21:02:17.039Z,7.23
2023-04-10T21:04:51.125Z,7.19
2023-04-10T21:07:23.279Z,7.19
2023-04-10T21:09:57.044Z,7.18
2023-04-10T21:12:29.165Z,7.25
2023-04-10T21:15:01.941Z,7.30
2023-04-10T21:17:41.435Z,7.30
2023-04-10T21:20:17.197Z,7.26
2023-04-10T21:22:49.428Z,7.17
2023-04-10T21:25:21.656Z,7.15
2023-04-10T21:27:56.362Z,7.01
2023-04-10T21:30:29.304Z,6.85
2023-04-10T21:33:01.590Z,6.80
2023-04-10T21:35:35.360Z,6.83
2023-04-10T21:38:08.510Z,6.86
2023-04-10T21:40:41.797Z,6.88
2023-04-10T21:43:14.073Z,6.80
2023-04-10T21:45:49.087Z,6.66
2023-04-10T21:48:24.523Z,6.55
2023-04-10T21:50:58.664Z,6.46
2023-04-10T21:53:30.706Z,6.36
2023-04-10T21:56:02.902Z,6.34
2023-04-10T21:58:38.803Z,6.34
2023-04-10T22:01:17.273Z,6.37
2023-04-10T22:03:53.978Z,6.40
2023-04-10T22:06:29.568Z,6.33
2023-04-10T22:09:04.635Z,6.27
2023-04-10T22:11:40.635Z,6.20
2023-04-10T22:14:16.534Z,6.13
2023-04-10T22:16:49.855Z,6.09
2023-04-10T22:19:26.312Z,6.07
2023-04-10T22:21:58.729Z,6.07
2023-04-10T22:24:33.851Z,6.12
2023-04-10T22:27:08.221Z,6.07
2023-04-10T22:29:41.957Z,5.96
2023-04-10T22:32:15.528Z,5.95
2023-04-10T22:34:47.765Z,5.98
2023-04-10T22:37:20.221Z,6.03
2023-04-10T22:39:56.460Z,6.02
2023-04-10T22:42:33.441Z,6.03
2023-04-10T22:45:06.224Z,6.10
2023-04-10T22:47:39.664Z,6.07
2023-04-10T22:50:12.457Z,6.08
2023-04-10T22:52:47.369Z,6.08
2023-04-10T22:55:19.654Z,5.93
2023-04-10T22:57:52.747Z,5.78
2023-04-10T23:00:24.960Z,5.64
2023-04-10T23:02:57.278Z,5.53
2023-04-10T23:05:30.124Z,5.48
2023-04-10T23:08:02.392Z,5.42
2023-04-10T23:10:34.448Z,5.43
2023-04-10T23:13:06.831Z,5.38
2023-04-10T23:15:43.516Z,5.39
2023-04-10T23:18:19.722Z,5.41
2023-04-10T23:20:54.629Z,5.42
2023-04-10T23:23:27.212Z,5.44
2023-04-10T23:26:03.790Z,5.53
2023-04-10T23:28:36.233Z,5.55
2023-04-10T23:31:13.809Z,5.52
2023-04-10T23:33:54.938Z,5.49
2023-04-10T23:36:28.397Z,5.50
2023-04-10T23:39:01.021Z,5.47
2023-04-10T23:41:33.811Z,5.40
2023-04-10T23:44:06.650Z,5.39
2023-04-10T23:46:39.737Z,5.38
2023-04-10T23:49:12.322Z,5.41
2023-04-10T23:51:45.038Z,5.40
2023-04-10T23:54:19.644Z,5.38
2023-04-10T23:56:51.675Z,5.34
2023-04-10T23:59:23.639Z,5.28
